sensor_id;sensor_type;location;lat;lon;timestamp;P1;durP1;ratioP1;P2;durP2;ratioP2
67839;SDS011;54636;51.684;5.142;2022-10-16T00:01:26;10.90;;;2.17;;
67839;SDS011;54636;51.684;5.142;2022-10-16T00:03:54;8.57;;;1.98;;
67839;SDS011;54636;51.684;5.142;2022-10-16T00:06:21;7.28;;;2.30;;
67839;SDS011;54636;51.684;5.142;2022-10-16T00:08:47;4.53;;;2.38;;
67839;SDS011;54636;51.684;5.142;2022-10-16T00:11:15;7.90;;;2.60;;
67839;SDS011;54636;51.684;5.142;2022-10-16T00:16:10;2.78;;;2.25;;
67839;SDS011;54636;51.684;5.142;2022-10-16T00:18:37;6.13;;;2.08;;
67839;SDS011;54636;51.684;5.142;2022-10-16T00:21:10;5.70;;;2.38;;
67839;SDS011;54636;51.684;5.142;2022-10-16T00:23:38;2.83;;;2.08;;
67839;SDS011;54636;51.684;5.142;2022-10-16T00:26:05;7.03;;;2.10;;
67839;SDS011;54636;51.684;5.142;2022-10-16T00:28:33;3.40;;;2.00;;
67839;SDS011;54636;51.684;5.142;2022-10-16T00:31:02;4.70;;;2.47;;
67839;SDS011;54636;51.684;5.142;2022-10-16T00:33:35;3.80;;;2.20;;
67839;SDS011;54636;51.684;5.142;2022-10-16T00:36:02;9.45;;;2.80;;
67839;SDS011;54636;51.684;5.142;2022-10-16T00:38:29;3.80;;;2.30;;
67839;SDS011;54636;51.684;5.142;2022-10-16T00:40:54;4.97;;;2.33;;
67839;SDS011;54636;51.684;5.142;2022-10-16T00:46:13;6.60;;;2.85;;
67839;SDS011;54636;51.684;5.142;2022-10-16T00:48:39;4.33;;;2.80;;
67839;SDS011;54636;51.684;5.142;2022-10-16T00:51:06;2.05;;;1.88;;
67839;SDS011;54636;51.684;5.142;2022-10-16T00:53:32;3.70;;;1.90;;
67839;SDS011;54636;51.684;5.142;2022-10-16T00:55:58;4.72;;;1.95;;
67839;SDS011;54636;51.684;5.142;2022-10-16T00:58:24;6.63;;;2.30;;
67839;SDS011;54636;51.684;5.142;2022-10-16T01:00:49;3.92;;;2.00;;
67839;SDS011;54636;51.684;5.142;2022-10-16T01:03:25;3.60;;;2.63;;
67839;SDS011;54636;51.684;5.142;2022-10-16T01:05:54;7.43;;;2.42;;
67839;SDS011;54636;51.684;5.142;2022-10-16T01:08:46;4.30;;;2.03;;
67839;SDS011;54636;51.684;5.142;2022-10-16T01:11:25;6.07;;;2.10;;
67839;SDS011;54636;51.684;5.142;2022-10-16T01:14:06;2.15;;;1.95;;
67839;SDS011;54636;51.684;5.142;2022-10-16T01:16:43;1.73;;;1.63;;
67839;SDS011;54636;51.684;5.142;2022-10-16T01:22:18;4.50;;;1.77;;
67839;SDS011;54636;51.684;5.142;2022-10-16T01:24:47;1.75;;;1.65;;
67839;SDS011;54636;51.684;5.142;2022-10-16T01:27:15;3.60;;;1.92;;
67839;SDS011;54636;51.684;5.142;2022-10-16T01:29:52;1.65;;;1.50;;
67839;SDS011;54636;51.684;5.142;2022-10-16T01:34:53;4.03;;;1.85;;
67839;SDS011;54636;51.684;5.142;2022-10-16T01:37:35;1.55;;;1.40;;
67839;SDS011;54636;51.684;5.142;2022-10-16T01:40:09;1.63;;;1.50;;
67839;SDS011;54636;51.684;5.142;2022-10-16T01:42:44;4.72;;;1.60;;
67839;SDS011;54636;51.684;5.142;2022-10-16T01:45:14;1.75;;;1.38;;
67839;SDS011;54636;51.684;5.142;2022-10-16T01:47:43;7.55;;;1.60;;
67839;SDS011;54636;51.684;5.142;2022-10-16T01:50:10;1.95;;;1.40;;
67839;SDS011;54636;51.684;5.142;2022-10-16T01:52:40;3.73;;;1.90;;
67839;SDS011;54636;51.684;5.142;2022-10-16T01:55:09;3.30;;;1.50;;
67839;SDS011;54636;51.684;5.142;2022-10-16T01:57:38;2.05;;;1.95;;
67839;SDS011;54636;51.684;5.142;2022-10-16T02:02:35;4.20;;;1.67;;
67839;SDS011;54636;51.684;5.142;2022-10-16T02:07:48;3.42;;;1.92;;
67839;SDS011;54636;51.684;5.142;2022-10-16T02:10:14;1.80;;;1.70;;
67839;SDS011;54636;51.684;5.142;2022-10-16T02:12:41;5.70;;;1.85;;
67839;SDS011;54636;51.684;5.142;2022-10-16T02:15:11;1.60;;;1.50;;
67839;SDS011;54636;51.684;5.142;2022-10-16T02:17:37;2.60;;;1.65;;
67839;SDS011;54636;51.684;5.142;2022-10-16T02:20:02;2.53;;;1.73;;
67839;SDS011;54636;51.684;5.142;2022-10-16T02:22:36;3.15;;;1.80;;
67839;SDS011;54636;51.684;5.142;2022-10-16T02:30:33;4.07;;;1.85;;
67839;SDS011;54636;51.684;5.142;2022-10-16T02:33:05;2.05;;;1.50;;
67839;SDS011;54636;51.684;5.142;2022-10-16T02:35:34;3.67;;;1.58;;
67839;SDS011;54636;51.684;5.142;2022-10-16T02:38:01;5.05;;;1.92;;
67839;SDS011;54636;51.684;5.142;2022-10-16T02:40:27;2.25;;;2.03;;
67839;SDS011;54636;51.684;5.142;2022-10-16T02:42:53;1.63;;;1.52;;
67839;SDS011;54636;51.684;5.142;2022-10-16T02:45:20;6.25;;;2.08;;
67839;SDS011;54636;51.684;5.142;2022-10-16T02:47:46;1.75;;;1.50;;
67839;SDS011;54636;51.684;5.142;2022-10-16T02:50:11;2.88;;;1.60;;
67839;SDS011;54636;51.684;5.142;2022-10-16T02:52:37;4.72;;;1.45;;
67839;SDS011;54636;51.684;5.142;2022-10-16T02:55:03;1.98;;;1.42;;
67839;SDS011;54636;51.684;5.142;2022-10-16T02:57:28;3.03;;;1.42;;
67839;SDS011;54636;51.684;5.142;2022-10-16T02:59:54;1.65;;;1.55;;
67839;SDS011;54636;51.684;5.142;2022-10-16T03:02:19;1.85;;;1.35;;
67839;SDS011;54636;51.684;5.142;2022-10-16T03:04:45;2.78;;;1.50;;
67839;SDS011;54636;51.684;5.142;2022-10-16T03:07:11;2.13;;;1.40;;
67839;SDS011;54636;51.684;5.142;2022-10-16T03:09:36;2.10;;;1.38;;
67839;SDS011;54636;51.684;5.142;2022-10-16T03:12:02;4.25;;;1.40;;
67839;SDS011;54636;51.684;5.142;2022-10-16T03:14:27;3.92;;;1.20;;
67839;SDS011;54636;51.684;5.142;2022-10-16T03:16:53;1.73;;;1.63;;
67839;SDS011;54636;51.684;5.142;2022-10-16T03:19:18;2.22;;;1.38;;
67839;SDS011;54636;51.684;5.142;2022-10-16T03:21:44;3.13;;;1.40;;
67839;SDS011;54636;51.684;5.142;2022-10-16T03:24:10;1.85;;;1.25;;
67839;SDS011;54636;51.684;5.142;2022-10-16T03:26:35;2.42;;;1.50;;
67839;SDS011;54636;51.684;5.142;2022-10-16T03:29:01;3.97;;;2.80;;
67839;SDS011;54636;51.684;5.142;2022-10-16T03:31:28;1.35;;;1.20;;
67839;SDS011;54636;51.684;5.142;2022-10-16T03:33:54;4.15;;;1.33;;
67839;SDS011;54636;51.684;5.142;2022-10-16T03:36:19;2.75;;;1.30;;
67839;SDS011;54636;51.684;5.142;2022-10-16T03:38:44;1.88;;;1.33;;
67839;SDS011;54636;51.684;5.142;2022-10-16T03:41:10;3.05;;;1.80;;
67839;SDS011;54636;51.684;5.142;2022-10-16T03:43:35;3.08;;;1.45;;
67839;SDS011;54636;51.684;5.142;2022-10-16T03:46:00;1.45;;;1.40;;
67839;SDS011;54636;51.684;5.142;2022-10-16T03:48:26;2.53;;;1.55;;
67839;SDS011;54636;51.684;5.142;2022-10-16T03:50:51;3.50;;;1.70;;
67839;SDS011;54636;51.684;5.142;2022-10-16T03:53:17;3.95;;;1.35;;
67839;SDS011;54636;51.684;5.142;2022-10-16T03:55:43;5.82;;;1.40;;
67839;SDS011;54636;51.684;5.142;2022-10-16T03:58:09;1.90;;;1.70;;
67839;SDS011;54636;51.684;5.142;2022-10-16T04:00:34;3.05;;;1.30;;
67839;SDS011;54636;51.684;5.142;2022-10-16T04:02:59;1.83;;;1.17;;
67839;SDS011;54636;51.684;5.142;2022-10-16T04:05:25;2.40;;;1.85;;
67839;SDS011;54636;51.684;5.142;2022-10-16T04:07:54;2.83;;;1.52;;
67839;SDS011;54636;51.684;5.142;2022-10-16T04:10:20;4.25;;;1.40;;
67839;SDS011;54636;51.684;5.142;2022-10-16T04:12:45;3.58;;;1.45;;
67839;SDS011;54636;51.684;5.142;2022-10-16T04:15:10;5.55;;;1.77;;
67839;SDS011;54636;51.684;5.142;2022-10-16T04:17:36;3.22;;;1.30;;
67839;SDS011;54636;51.684;5.142;2022-10-16T04:20:02;3.42;;;1.40;;
67839;SDS011;54636;51.684;5.142;2022-10-16T04:22:28;3.00;;;1.85;;
67839;SDS011;54636;51.684;5.142;2022-10-16T04:24:53;2.85;;;2.38;;
67839;SDS011;54636;51.684;5.142;2022-10-16T04:27:18;3.08;;;1.60;;
67839;SDS011;54636;51.684;5.142;2022-10-16T04:29:44;4.28;;;1.60;;
67839;SDS011;54636;51.684;5.142;2022-10-16T04:32:09;1.85;;;1.70;;
67839;SDS011;54636;51.684;5.142;2022-10-16T04:34:35;4.18;;;1.55;;
67839;SDS011;54636;51.684;5.142;2022-10-16T04:37:00;4.20;;;1.52;;
67839;SDS011;54636;51.684;5.142;2022-10-16T04:39:25;2.03;;;1.70;;
67839;SDS011;54636;51.684;5.142;2022-10-16T04:41:51;7.07;;;1.65;;
67839;SDS011;54636;51.684;5.142;2022-10-16T04:44:16;5.50;;;1.50;;
67839;SDS011;54636;51.684;5.142;2022-10-16T04:46:41;5.53;;;1.83;;
67839;SDS011;54636;51.684;5.142;2022-10-16T04:49:07;4.97;;;1.90;;
67839;SDS011;54636;51.684;5.142;2022-10-16T04:51:32;3.38;;;2.15;;
67839;SDS011;54636;51.684;5.142;2022-10-16T04:53:58;7.18;;;1.88;;
67839;SDS011;54636;51.684;5.142;2022-10-16T04:56:23;4.35;;;2.05;;
67839;SDS011;54636;51.684;5.142;2022-10-16T04:58:49;1.83;;;1.38;;
67839;SDS011;54636;51.684;5.142;2022-10-16T05:01:14;3.35;;;2.17;;
67839;SDS011;54636;51.684;5.142;2022-10-16T05:03:40;5.28;;;2.10;;
67839;SDS011;54636;51.684;5.142;2022-10-16T05:06:05;2.40;;;1.60;;
67839;SDS011;54636;51.684;5.142;2022-10-16T05:08:32;2.15;;;1.63;;
67839;SDS011;54636;51.684;5.142;2022-10-16T05:10:57;2.38;;;1.77;;
67839;SDS011;54636;51.684;5.142;2022-10-16T05:13:23;4.13;;;2.00;;
67839;SDS011;54636;51.684;5.142;2022-10-16T05:15:48;3.33;;;1.90;;
67839;SDS011;54636;51.684;5.142;2022-10-16T05:18:14;3.30;;;1.98;;
67839;SDS011;54636;51.684;5.142;2022-10-16T05:20:40;2.50;;;2.10;;
67839;SDS011;54636;51.684;5.142;2022-10-16T05:23:06;3.03;;;1.88;;
67839;SDS011;54636;51.684;5.142;2022-10-16T05:25:31;4.00;;;2.08;;
67839;SDS011;54636;51.684;5.142;2022-10-16T05:27:56;3.20;;;1.80;;
67839;SDS011;54636;51.684;5.142;2022-10-16T05:30:22;6.78;;;2.00;;
67839;SDS011;54636;51.684;5.142;2022-10-16T05:32:48;6.32;;;2.10;;
67839;SDS011;54636;51.684;5.142;2022-10-16T05:35:14;4.57;;;1.80;;
67839;SDS011;54636;51.684;5.142;2022-10-16T05:37:41;5.63;;;2.03;;
67839;SDS011;54636;51.684;5.142;2022-10-16T05:40:07;3.90;;;1.70;;
67839;SDS011;54636;51.684;5.142;2022-10-16T05:42:33;5.65;;;1.80;;
67839;SDS011;54636;51.684;5.142;2022-10-16T05:45:01;4.07;;;2.08;;
67839;SDS011;54636;51.684;5.142;2022-10-16T05:47:27;2.20;;;2.00;;
67839;SDS011;54636;51.684;5.142;2022-10-16T05:49:52;4.70;;;2.20;;
67839;SDS011;54636;51.684;5.142;2022-10-16T05:52:18;5.20;;;2.22;;
67839;SDS011;54636;51.684;5.142;2022-10-16T05:54:43;2.35;;;2.00;;
67839;SDS011;54636;51.684;5.142;2022-10-16T05:57:09;1.80;;;1.70;;
67839;SDS011;54636;51.684;5.142;2022-10-16T05:59:34;4.18;;;1.90;;
67839;SDS011;54636;51.684;5.142;2022-10-16T06:02:00;3.42;;;1.90;;
67839;SDS011;54636;51.684;5.142;2022-10-16T06:04:25;6.68;;;2.08;;
67839;SDS011;54636;51.684;5.142;2022-10-16T06:06:50;3.88;;;1.88;;
67839;SDS011;54636;51.684;5.142;2022-10-16T06:09:16;3.80;;;2.13;;
67839;SDS011;54636;51.684;5.142;2022-10-16T06:11:41;8.57;;;2.10;;
67839;SDS011;54636;51.684;5.142;2022-10-16T06:14:07;7.60;;;1.98;;
67839;SDS011;54636;51.684;5.142;2022-10-16T06:16:34;7.38;;;1.90;;
67839;SDS011;54636;51.684;5.142;2022-10-16T06:19:01;5.20;;;2.53;;
67839;SDS011;54636;51.684;5.142;2022-10-16T06:21:29;3.88;;;1.73;;
67839;SDS011;54636;51.684;5.142;2022-10-16T06:23:55;7.85;;;2.30;;
67839;SDS011;54636;51.684;5.142;2022-10-16T06:26:22;5.68;;;2.38;;
67839;SDS011;54636;51.684;5.142;2022-10-16T06:28:49;3.67;;;2.30;;
67839;SDS011;54636;51.684;5.142;2022-10-16T06:31:14;16.85;;;3.65;;
67839;SDS011;54636;51.684;5.142;2022-10-16T06:33:41;5.68;;;2.33;;
67839;SDS011;54636;51.684;5.142;2022-10-16T06:36:08;9.43;;;2.08;;
67839;SDS011;54636;51.684;5.142;2022-10-16T06:38:35;3.28;;;1.83;;
67839;SDS011;54636;51.684;5.142;2022-10-16T06:41:01;3.22;;;2.17;;
67839;SDS011;54636;51.684;5.142;2022-10-16T06:43:28;4.32;;;2.05;;
67839;SDS011;54636;51.684;5.142;2022-10-16T06:45:57;7.27;;;1.80;;
67839;SDS011;54636;51.684;5.142;2022-10-16T06:48:23;3.72;;;1.67;;
67839;SDS011;54636;51.684;5.142;2022-10-16T06:50:56;4.68;;;1.77;;
67839;SDS011;54636;51.684;5.142;2022-10-16T06:53:26;2.25;;;1.70;;
67839;SDS011;54636;51.684;5.142;2022-10-16T06:55:53;3.72;;;1.88;;
67839;SDS011;54636;51.684;5.142;2022-10-16T06:58:19;2.53;;;2.10;;
67839;SDS011;54636;51.684;5.142;2022-10-16T07:00:44;3.78;;;1.75;;
67839;SDS011;54636;51.684;5.142;2022-10-16T07:03:10;9.23;;;2.22;;
67839;SDS011;54636;51.684;5.142;2022-10-16T07:05:39;4.80;;;1.77;;
67839;SDS011;54636;51.684;5.142;2022-10-16T07:08:05;2.70;;;1.88;;
67839;SDS011;54636;51.684;5.142;2022-10-16T07:10:31;6.43;;;2.03;;
67839;SDS011;54636;51.684;5.142;2022-10-16T07:12:56;3.58;;;1.80;;
67839;SDS011;54636;51.684;5.142;2022-10-16T07:15:22;6.75;;;2.00;;
67839;SDS011;54636;51.684;5.142;2022-10-16T07:17:48;4.38;;;2.58;;
67839;SDS011;54636;51.684;5.142;2022-10-16T07:20:13;5.60;;;1.95;;
67839;SDS011;54636;51.684;5.142;2022-10-16T07:22:39;4.43;;;1.80;;
67839;SDS011;54636;51.684;5.142;2022-10-16T07:25:04;3.03;;;2.10;;
67839;SDS011;54636;51.684;5.142;2022-10-16T07:27:30;5.18;;;1.98;;
67839;SDS011;54636;51.684;5.142;2022-10-16T07:29:55;4.03;;;2.30;;
67839;SDS011;54636;51.684;5.142;2022-10-16T07:32:20;4.47;;;1.77;;
67839;SDS011;54636;51.684;5.142;2022-10-16T07:34:46;2.83;;;2.05;;
67839;SDS011;54636;51.684;5.142;2022-10-16T07:37:11;2.72;;;1.70;;
67839;SDS011;54636;51.684;5.142;2022-10-16T07:39:36;4.78;;;1.85;;
67839;SDS011;54636;51.684;5.142;2022-10-16T07:42:02;4.05;;;1.83;;
67839;SDS011;54636;51.684;5.142;2022-10-16T07:44:27;2.88;;;1.65;;
67839;SDS011;54636;51.684;5.142;2022-10-16T07:46:53;6.38;;;2.00;;
67839;SDS011;54636;51.684;5.142;2022-10-16T07:49:18;3.88;;;1.73;;
67839;SDS011;54636;51.684;5.142;2022-10-16T07:51:43;3.08;;;2.20;;
67839;SDS011;54636;51.684;5.142;2022-10-16T07:54:09;1.98;;;1.67;;
67839;SDS011;54636;51.684;5.142;2022-10-16T07:56:35;2.92;;;1.90;;
67839;SDS011;54636;51.684;5.142;2022-10-16T07:59:00;4.50;;;2.10;;
67839;SDS011;54636;51.684;5.142;2022-10-16T08:01:26;2.38;;;1.48;;
67839;SDS011;54636;51.684;5.142;2022-10-16T08:03:51;2.03;;;1.70;;
67839;SDS011;54636;51.684;5.142;2022-10-16T08:06:17;6.90;;;2.30;;
67839;SDS011;54636;51.684;5.142;2022-10-16T08:08:44;3.80;;;1.95;;
67839;SDS011;54636;51.684;5.142;2022-10-16T08:11:10;4.68;;;2.25;;
67839;SDS011;54636;51.684;5.142;2022-10-16T08:13:36;6.22;;;2.03;;
67839;SDS011;54636;51.684;5.142;2022-10-16T08:16:01;4.97;;;2.17;;
67839;SDS011;54636;51.684;5.142;2022-10-16T08:18:32;11.55;;;2.67;;
67839;SDS011;54636;51.684;5.142;2022-10-16T08:20:59;6.10;;;2.13;;
67839;SDS011;54636;51.684;5.142;2022-10-16T08:23:25;7.53;;;2.03;;
67839;SDS011;54636;51.684;5.142;2022-10-16T08:25:53;4.82;;;1.92;;
67839;SDS011;54636;51.684;5.142;2022-10-16T08:28:19;7.82;;;2.20;;
67839;SDS011;54636;51.684;5.142;2022-10-16T08:30:45;8.15;;;2.67;;
67839;SDS011;54636;51.684;5.142;2022-10-16T08:33:10;5.38;;;1.83;;
67839;SDS011;54636;51.684;5.142;2022-10-16T08:35:36;4.53;;;1.92;;
67839;SDS011;54636;51.684;5.142;2022-10-16T08:38:04;4.13;;;1.75;;
67839;SDS011;54636;51.684;5.142;2022-10-16T08:40:31;3.05;;;1.73;;
67839;SDS011;54636;51.684;5.142;2022-10-16T08:51:15;6.57;;;1.90;;
67839;SDS011;54636;51.684;5.142;2022-10-16T08:54:46;4.78;;;1.33;;
67839;SDS011;54636;51.684;5.142;2022-10-16T08:57:19;3.85;;;1.45;;
67839;SDS011;54636;51.684;5.142;2022-10-16T08:59:46;5.60;;;2.15;;
67839;SDS011;54636;51.684;5.142;2022-10-16T09:02:35;5.78;;;2.00;;
67839;SDS011;54636;51.684;5.142;2022-10-16T09:10:24;4.43;;;1.20;;
67839;SDS011;54636;51.684;5.142;2022-10-16T09:16:00;2.83;;;1.50;;
67839;SDS011;54636;51.684;5.142;2022-10-16T09:18:48;2.90;;;1.65;;
67839;SDS011;54636;51.684;5.142;2022-10-16T09:21:29;5.93;;;2.10;;
67839;SDS011;54636;51.684;5.142;2022-10-16T09:24:09;6.75;;;1.77;;
67839;SDS011;54636;51.684;5.142;2022-10-16T09:26:39;8.82;;;2.58;;
67839;SDS011;54636;51.684;5.142;2022-10-16T09:29:05;9.95;;;1.85;;
67839;SDS011;54636;51.684;5.142;2022-10-16T09:31:31;6.35;;;2.20;;
67839;SDS011;54636;51.684;5.142;2022-10-16T09:34:00;12.38;;;2.10;;
67839;SDS011;54636;51.684;5.142;2022-10-16T09:36:33;8.63;;;2.20;;
67839;SDS011;54636;51.684;5.142;2022-10-16T09:41:37;7.68;;;2.17;;
67839;SDS011;54636;51.684;5.142;2022-10-16T09:44:12;9.05;;;2.40;;
67839;SDS011;54636;51.684;5.142;2022-10-16T09:46:40;12.25;;;2.47;;
67839;SDS011;54636;51.684;5.142;2022-10-16T09:51:48;18.73;;;3.00;;
67839;SDS011;54636;51.684;5.142;2022-10-16T09:54:15;8.88;;;2.00;;
67839;SDS011;54636;51.684;5.142;2022-10-16T09:56:42;8.27;;;2.00;;
67839;SDS011;54636;51.684;5.142;2022-10-16T09:59:14;14.18;;;2.35;;
67839;SDS011;54636;51.684;5.142;2022-10-16T10:01:46;14.98;;;2.50;;
67839;SDS011;54636;51.684;5.142;2022-10-16T10:04:13;7.70;;;2.38;;
67839;SDS011;54636;51.684;5.142;2022-10-16T10:11:49;9.52;;;2.25;;
67839;SDS011;54636;51.684;5.142;2022-10-16T10:14:24;6.10;;;1.77;;
67839;SDS011;54636;51.684;5.142;2022-10-16T10:30:38;9.55;;;2.47;;
67839;SDS011;54636;51.684;5.142;2022-10-16T10:38:54;10.30;;;2.60;;
67839;SDS011;54636;51.684;5.142;2022-10-16T10:49:52;8.63;;;2.60;;
67839;SDS011;54636;51.684;5.142;2022-10-16T10:55:10;12.20;;;2.00;;
67839;SDS011;54636;51.684;5.142;2022-10-16T10:57:54;9.70;;;2.33;;
67839;SDS011;54636;51.684;5.142;2022-10-16T11:01:12;8.40;;;2.13;;
67839;SDS011;54636;51.684;5.142;2022-10-16T11:03:54;12.70;;;2.28;;
67839;SDS011;54636;51.684;5.142;2022-10-16T11:06:24;13.65;;;2.47;;
67839;SDS011;54636;51.684;5.142;2022-10-16T11:11:30;13.00;;;2.90;;
67839;SDS011;54636;51.684;5.142;2022-10-16T11:19:34;16.42;;;3.10;;
67839;SDS011;54636;51.684;5.142;2022-10-16T11:22:09;13.20;;;2.15;;
67839;SDS011;54636;51.684;5.142;2022-10-16T11:27:17;10.13;;;2.10;;
67839;SDS011;54636;51.684;5.142;2022-10-16T11:29:55;11.60;;;1.77;;
67839;SDS011;54636;51.684;5.142;2022-10-16T11:32:32;13.23;;;2.30;;
67839;SDS011;54636;51.684;5.142;2022-10-16T11:41:24;10.70;;;2.20;;
67839;SDS011;54636;51.684;5.142;2022-10-16T11:46:38;10.98;;;2.72;;
67839;SDS011;54636;51.684;5.142;2022-10-16T11:49:11;18.35;;;2.35;;
67839;SDS011;54636;51.684;5.142;2022-10-16T11:54:46;10.02;;;2.10;;
67839;SDS011;54636;51.684;5.142;2022-10-16T11:59:49;12.48;;;2.28;;
67839;SDS011;54636;51.684;5.142;2022-10-16T12:05:34;12.00;;;2.45;;
67839;SDS011;54636;51.684;5.142;2022-10-16T12:08:13;7.70;;;2.42;;
67839;SDS011;54636;51.684;5.142;2022-10-16T12:10:41;11.18;;;2.60;;
67839;SDS011;54636;51.684;5.142;2022-10-16T12:16:04;15.52;;;2.72;;
67839;SDS011;54636;51.684;5.142;2022-10-16T12:18:39;12.20;;;1.77;;
67839;SDS011;54636;51.684;5.142;2022-10-16T12:21:06;13.02;;;2.53;;
67839;SDS011;54636;51.684;5.142;2022-10-16T12:23:51;12.65;;;2.45;;
67839;SDS011;54636;51.684;5.142;2022-10-16T12:26:32;4.72;;;1.67;;
67839;SDS011;54636;51.684;5.142;2022-10-16T12:32:05;10.75;;;2.05;;
67839;SDS011;54636;51.684;5.142;2022-10-16T12:34:45;14.70;;;2.80;;
67839;SDS011;54636;51.684;5.142;2022-10-16T12:37:14;11.23;;;2.60;;
67839;SDS011;54636;51.684;5.142;2022-10-16T12:39:46;14.10;;;2.85;;
67839;SDS011;54636;51.684;5.142;2022-10-16T12:44:56;16.30;;;2.95;;
67839;SDS011;54636;51.684;5.142;2022-10-16T12:52:56;9.37;;;2.27;;
67839;SDS011;54636;51.684;5.142;2022-10-16T12:55:22;11.68;;;2.28;;
67839;SDS011;54636;51.684;5.142;2022-10-16T13:00:38;8.20;;;1.83;;
67839;SDS011;54636;51.684;5.142;2022-10-16T13:06:26;11.63;;;2.28;;
67839;SDS011;54636;51.684;5.142;2022-10-16T13:12:04;6.43;;;1.98;;
67839;SDS011;54636;51.684;5.142;2022-10-16T13:14:52;11.80;;;2.30;;
67839;SDS011;54636;51.684;5.142;2022-10-16T13:20:19;12.07;;;2.70;;
67839;SDS011;54636;51.684;5.142;2022-10-16T13:28:22;12.25;;;2.30;;
67839;SDS011;54636;51.684;5.142;2022-10-16T13:30:56;13.23;;;2.78;;
67839;SDS011;54636;51.684;5.142;2022-10-16T13:33:42;7.45;;;2.45;;
67839;SDS011;54636;51.684;5.142;2022-10-16T13:36:23;10.55;;;3.00;;
67839;SDS011;54636;51.684;5.142;2022-10-16T13:38:59;9.50;;;2.35;;
67839;SDS011;54636;51.684;5.142;2022-10-16T13:41:48;11.63;;;2.28;;
67839;SDS011;54636;51.684;5.142;2022-10-16T13:44:26;14.98;;;2.03;;
67839;SDS011;54636;51.684;5.142;2022-10-16T13:46:58;6.20;;;1.65;;
67839;SDS011;54636;51.684;5.142;2022-10-16T13:49:25;9.60;;;2.20;;
67839;SDS011;54636;51.684;5.142;2022-10-16T13:51:58;10.55;;;2.45;;
67839;SDS011;54636;51.684;5.142;2022-10-16T13:54:24;10.82;;;2.50;;
67839;SDS011;54636;51.684;5.142;2022-10-16T13:56:56;9.88;;;1.88;;
67839;SDS011;54636;51.684;5.142;2022-10-16T13:59:34;7.22;;;2.17;;
67839;SDS011;54636;51.684;5.142;2022-10-16T14:02:04;6.50;;;1.80;;
67839;SDS011;54636;51.684;5.142;2022-10-16T14:04:40;6.20;;;2.13;;
67839;SDS011;54636;51.684;5.142;2022-10-16T14:07:11;7.78;;;1.75;;
67839;SDS011;54636;51.684;5.142;2022-10-16T14:09:39;10.18;;;2.30;;
67839;SDS011;54636;51.684;5.142;2022-10-16T14:12:09;10.10;;;2.70;;
67839;SDS011;54636;51.684;5.142;2022-10-16T14:14:45;17.00;;;2.80;;
67839;SDS011;54636;51.684;5.142;2022-10-16T14:17:25;8.73;;;2.25;;
67839;SDS011;54636;51.684;5.142;2022-10-16T14:19:54;7.15;;;1.98;;
67839;SDS011;54636;51.684;5.142;2022-10-16T14:24:58;9.10;;;2.50;;
67839;SDS011;54636;51.684;5.142;2022-10-16T14:27:31;11.10;;;2.00;;
67839;SDS011;54636;51.684;5.142;2022-10-16T14:30:33;7.90;;;2.13;;
67839;SDS011;54636;51.684;5.142;2022-10-16T14:35:31;7.20;;;1.88;;
67839;SDS011;54636;51.684;5.142;2022-10-16T14:38:02;7.95;;;1.95;;
67839;SDS011;54636;51.684;5.142;2022-10-16T14:40:30;7.43;;;2.30;;
67839;SDS011;54636;51.684;5.142;2022-10-16T14:42:57;9.20;;;2.13;;
67839;SDS011;54636;51.684;5.142;2022-10-16T14:45:26;7.88;;;2.03;;
67839;SDS011;54636;51.684;5.142;2022-10-16T14:47:55;7.93;;;1.80;;
67839;SDS011;54636;51.684;5.142;2022-10-16T14:50:22;6.47;;;1.92;;
67839;SDS011;54636;51.684;5.142;2022-10-16T14:52:48;5.03;;;2.10;;
67839;SDS011;54636;51.684;5.142;2022-10-16T14:55:13;10.98;;;2.35;;
67839;SDS011;54636;51.684;5.142;2022-10-16T14:57:39;14.25;;;2.13;;
67839;SDS011;54636;51.684;5.142;2022-10-16T15:00:16;8.65;;;1.95;;
67839;SDS011;54636;51.684;5.142;2022-10-16T15:02:47;10.15;;;2.38;;
67839;SDS011;54636;51.684;5.142;2022-10-16T15:05:20;6.55;;;1.92;;
67839;SDS011;54636;51.684;5.142;2022-10-16T15:07:47;8.00;;;2.20;;
67839;SDS011;54636;51.684;5.142;2022-10-16T15:10:15;11.05;;;2.38;;
67839;SDS011;54636;51.684;5.142;2022-10-16T15:12:43;4.88;;;1.65;;
67839;SDS011;54636;51.684;5.142;2022-10-16T15:15:20;9.32;;;2.20;;
67839;SDS011;54636;51.684;5.142;2022-10-16T15:18:01;7.15;;;2.10;;
67839;SDS011;54636;51.684;5.142;2022-10-16T15:20:28;6.93;;;2.03;;
67839;SDS011;54636;51.684;5.142;2022-10-16T15:22:58;9.18;;;2.35;;
67839;SDS011;54636;51.684;5.142;2022-10-16T15:25:57;12.82;;;2.42;;
67839;SDS011;54636;51.684;5.142;2022-10-16T15:28:17;5.93;;;1.73;;
67839;SDS011;54636;51.684;5.142;2022-10-16T15:30:44;7.00;;;1.88;;
67839;SDS011;54636;51.684;5.142;2022-10-16T15:33:12;9.35;;;2.47;;
67839;SDS011;54636;51.684;5.142;2022-10-16T15:35:42;6.75;;;1.77;;
67839;SDS011;54636;51.684;5.142;2022-10-16T15:38:13;13.05;;;2.85;;
67839;SDS011;54636;51.684;5.142;2022-10-16T15:40:40;8.15;;;1.95;;
67839;SDS011;54636;51.684;5.142;2022-10-16T15:43:06;12.93;;;2.63;;
67839;SDS011;54636;51.684;5.142;2022-10-16T15:45:32;7.10;;;2.05;;
67839;SDS011;54636;51.684;5.142;2022-10-16T15:47:57;4.38;;;2.30;;
67839;SDS011;54636;51.684;5.142;2022-10-16T15:50:23;14.23;;;5.50;;
67839;SDS011;54636;51.684;5.142;2022-10-16T15:52:49;12.43;;;7.40;;
67839;SDS011;54636;51.684;5.142;2022-10-16T15:55:15;14.63;;;10.15;;
67839;SDS011;54636;51.684;5.142;2022-10-16T15:57:40;14.75;;;6.40;;
67839;SDS011;54636;51.684;5.142;2022-10-16T16:00:12;8.93;;;4.25;;
67839;SDS011;54636;51.684;5.142;2022-10-16T16:02:40;4.05;;;2.30;;
67839;SDS011;54636;51.684;5.142;2022-10-16T16:05:06;4.95;;;2.05;;
67839;SDS011;54636;51.684;5.142;2022-10-16T16:07:36;15.57;;;2.15;;
67839;SDS011;54636;51.684;5.142;2022-10-16T16:12:29;9.30;;;1.60;;
67839;SDS011;54636;51.684;5.142;2022-10-16T16:14:54;12.32;;;2.60;;
67839;SDS011;54636;51.684;5.142;2022-10-16T16:17:20;9.95;;;2.85;;
67839;SDS011;54636;51.684;5.142;2022-10-16T16:19:46;8.40;;;2.17;;
67839;SDS011;54636;51.684;5.142;2022-10-16T16:22:11;8.05;;;1.90;;
67839;SDS011;54636;51.684;5.142;2022-10-16T16:24:39;5.28;;;1.75;;
67839;SDS011;54636;51.684;5.142;2022-10-16T16:30:26;5.20;;;2.42;;
67839;SDS011;54636;51.684;5.142;2022-10-16T16:32:52;7.50;;;2.45;;
67839;SDS011;54636;51.684;5.142;2022-10-16T16:35:17;6.88;;;1.70;;
67839;SDS011;54636;51.684;5.142;2022-10-16T16:37:43;4.60;;;2.15;;
67839;SDS011;54636;51.684;5.142;2022-10-16T16:40:08;8.75;;;2.38;;
67839;SDS011;54636;51.684;5.142;2022-10-16T16:42:33;9.85;;;3.97;;
67839;SDS011;54636;51.684;5.142;2022-10-16T16:44:59;13.15;;;6.18;;
67839;SDS011;54636;51.684;5.142;2022-10-16T16:47:24;10.90;;;5.57;;
67839;SDS011;54636;51.684;5.142;2022-10-16T16:49:50;5.47;;;1.92;;
67839;SDS011;54636;51.684;5.142;2022-10-16T16:52:16;3.75;;;2.40;;
67839;SDS011;54636;51.684;5.142;2022-10-16T16:54:41;19.40;;;3.88;;
67839;SDS011;54636;51.684;5.142;2022-10-16T16:57:08;7.47;;;2.05;;
67839;SDS011;54636;51.684;5.142;2022-10-16T16:59:34;12.70;;;2.83;;
67839;SDS011;54636;51.684;5.142;2022-10-16T17:02:02;6.13;;;2.45;;
67839;SDS011;54636;51.684;5.142;2022-10-16T17:04:28;9.90;;;2.78;;
67839;SDS011;54636;51.684;5.142;2022-10-16T17:06:54;6.13;;;2.00;;
67839;SDS011;54636;51.684;5.142;2022-10-16T17:09:20;7.13;;;3.20;;
67839;SDS011;54636;51.684;5.142;2022-10-16T17:11:46;7.72;;;2.60;;
67839;SDS011;54636;51.684;5.142;2022-10-16T17:14:13;4.47;;;2.55;;
67839;SDS011;54636;51.684;5.142;2022-10-16T17:16:39;7.50;;;2.38;;
67839;SDS011;54636;51.684;5.142;2022-10-16T17:19:10;9.10;;;3.33;;
67839;SDS011;54636;51.684;5.142;2022-10-16T17:21:37;9.13;;;2.75;;
67839;SDS011;54636;51.684;5.142;2022-10-16T17:24:03;5.03;;;2.35;;
67839;SDS011;54636;51.684;5.142;2022-10-16T17:26:29;6.75;;;2.30;;